createdAt,value
2023-09-06T00:15:21.947Z,23.7
2023-09-06T00:45:22.480Z,23.6
2023-09-06T01:15:23.148Z,23.5
2023-09-06T01:45:23.655Z,23.5
2023-09-06T02:45:34.940Z,23.4
2023-09-06T03:15:35.649Z,23.4
2023-09-06T03:45:46.769Z,23.3
2023-09-06T04:15:47.535Z,23.2
2023-09-06T04:45:48.267Z,23.2
2023-09-06T05:15:48.716Z,23.1
2023-09-06T05:45:49.702Z,23.1
2023-09-06T06:15:50.359Z,23.1
2023-09-06T07:15:51.626Z,23.1
2023-09-06T07:45:52.483Z,23.1
2023-09-06T08:15:52.960Z,23.1
2023-09-06T08:45:53.837Z,23.1
2023-09-06T09:16:06.120Z,23.1
2023-09-06T09:46:08.649Z,23.1
2023-09-06T10:16:19.481Z,23.1
2023-09-06T10:46:20.314Z,23.1
2023-09-06T11:16:21.070Z,23.2
2023-09-06T12:16:22.410Z,23.2
2023-09-06T12:46:23.198Z,23.3
2023-09-06T13:16:24.015Z,23.4
2023-09-06T13:46:25.179Z,23.5
2023-09-06T14:16:25.963Z,23.6
2023-09-06T14:46:26.579Z,23.7
2023-09-06T15:16:27.151Z,23.8
2023-09-06T15:46:27.895Z,24
2023-09-06T16:16:28.658Z,24.1
2023-09-06T16:46:39.228Z,24.2
2023-09-06T17:46:50.471Z,24.3
2023-09-06T18:16:51.459Z,24.3
2023-09-06T18:46:53.019Z,24.2
2023-09-06T19:16:53.796Z,24.2
2023-09-06T19:46:54.830Z,24.1
2023-09-06T20:16:55.266Z,24.1
2023-09-06T20:46:55.679Z,24
2023-09-06T21:46:56.569Z,23.9
2023-09-06T22:16:57.238Z,23.8
2023-09-06T22:46:58.121Z,23.8
2023-09-06T23:17:09.446Z,23.7
2023-09-06T23:47:20.352Z,23.7
